createdAt,value
2019-04-07T00:00:18.639Z,11.09
2019-04-07T00:01:18.709Z,11.08
2019-04-07T00:02:18.622Z,11.05
2019-04-07T00:03:18.664Z,11.02
2019-04-07T00:04:18.644Z,10.98
2019-04-07T00:05:18.681Z,10.93
2019-04-07T00:06:19.067Z,11.03
2019-04-07T00:07:18.604Z,11.01
2019-04-07T00:08:18.566Z,10.88
2019-04-07T00:09:18.918Z,11.01
2019-04-07T00:10:19.136Z,10.94
2019-04-07T00:11:18.892Z,10.84
2019-04-07T00:12:18.855Z,10.88
2019-04-07T00:13:18.542Z,10.84
2019-04-07T00:14:18.477Z,10.81
2019-04-07T00:15:18.580Z,10.90
2019-04-07T00:16:18.550Z,10.81
2019-04-07T00:17:19.191Z,10.80
2019-04-07T00:18:19.108Z,10.86
2019-04-07T00:19:18.469Z,10.75
2019-04-07T00:20:18.701Z,10.76
2019-04-07T00:21:18.486Z,10.70
2019-04-07T00:22:18.435Z,10.73
2019-04-07T00:23:18.497Z,10.70
2019-04-07T00:24:18.379Z,10.69
2019-04-07T00:25:18.419Z,10.70
2019-04-07T00:26:18.395Z,10.62
2019-04-07T00:27:19.028Z,10.68
2019-04-07T00:28:18.459Z,10.72
2019-04-07T00:29:18.446Z,10.66
2019-04-07T00:30:18.304Z,10.76
2019-04-07T00:31:18.389Z,10.75
2019-04-07T00:32:18.328Z,10.70
2019-04-07T00:33:18.470Z,10.69
2019-04-07T00:34:18.294Z,10.75
2019-04-07T00:35:26.883Z,10.72
2019-04-07T00:36:19.254Z,10.70
2019-04-07T00:37:18.367Z,10.75
2019-04-07T00:38:18.239Z,10.70
2019-04-07T00:39:18.300Z,10.75
2019-04-07T00:40:18.555Z,10.70
2019-04-07T00:41:18.366Z,10.75
2019-04-07T00:42:18.219Z,10.68
2019-04-07T00:43:18.770Z,10.73
2019-04-07T00:44:18.904Z,10.73
2019-04-07T00:45:18.547Z,10.69
2019-04-07T00:46:18.176Z,10.62
2019-04-07T00:47:18.560Z,10.69
2019-04-07T00:48:18.119Z,10.58
2019-04-07T00:49:18.291Z,10.66
2019-04-07T00:50:18.306Z,10.63
2019-04-07T00:51:18.783Z,10.63
2019-04-07T00:52:18.226Z,10.57
2019-04-07T00:53:18.094Z,10.60
2019-04-07T00:54:18.054Z,10.68
2019-04-07T00:55:18.774Z,10.52
2019-04-07T00:56:18.308Z,10.60
2019-04-07T00:57:18.153Z,10.55
2019-04-07T00:58:18.034Z,10.46
2019-04-07T00:59:18.231Z,10.47
2019-04-07T01:00:18.273Z,10.42
2019-04-07T01:01:18.041Z,10.44
2019-04-07T01:02:17.997Z,10.39
2019-04-07T01:03:18.269Z,10.36
2019-04-07T01:04:17.995Z,10.32
2019-04-07T01:05:18.016Z,10.25
2019-04-07T01:06:17.912Z,10.31
2019-04-07T01:07:18.061Z,10.24
2019-04-07T01:08:18.009Z,10.18
2019-04-07T01:09:18.691Z,10.16
2019-04-07T01:10:18.318Z,10.09
2019-04-07T01:11:17.919Z,10.09
2019-04-07T01:12:18.265Z,10.10
2019-04-07T01:13:17.961Z,10.04
2019-04-07T01:14:18.189Z,10.01
2019-04-07T01:15:18.588Z,9.95
2019-04-07T01:16:17.803Z,9.96
2019-04-07T01:17:17.926Z,10.06
2019-04-07T01:18:18.116Z,9.96
2019-04-07T01:19:17.937Z,9.95
2019-04-07T01:20:17.811Z,9.89
2019-04-07T01:21:17.769Z,9.91
2019-04-07T01:22:17.771Z,9.89
2019-04-07T01:23:18.202Z,9.86
2019-04-07T01:24:17.737Z,9.85
2019-04-07T01:25:17.813Z,9.86
2019-04-07T01:26:17.718Z,9.78
2019-04-07T01:27:18.261Z,9.78
2019-04-07T01:28:17.677Z,9.78
2019-04-07T01:29:18.390Z,9.75
2019-04-07T01:30:18.310Z,9.67
2019-04-07T01:31:17.859Z,9.70
2019-04-07T01:32:17.627Z,9.71
2019-04-07T01:33:17.760Z,9.70
2019-04-07T01:34:17.646Z,9.71
2019-04-07T01:35:17.724Z,9.73
2019-04-07T01:36:18.200Z,9.63
2019-04-07T01:37:17.685Z,9.65
2019-04-07T01:38:17.908Z,9.52
2019-04-07T01:39:18.166Z,9.55
2019-04-07T01:40:17.697Z,9.52
2019-04-07T01:41:17.631Z,9.50
2019-04-07T01:42:17.951Z,9.44
2019-04-07T01:43:17.632Z,9.42
2019-04-07T01:44:17.990Z,9.37
2019-04-07T01:45:18.073Z,9.37
2019-04-07T01:46:17.635Z,9.24
2019-04-07T01:47:17.755Z,9.22
2019-04-07T01:48:17.645Z,9.27
2019-04-07T01:49:17.586Z,9.15
2019-04-07T01:50:17.446Z,9.19
2019-04-07T01:51:17.731Z,9.10
2019-04-07T01:52:17.411Z,9.10
2019-04-07T01:53:18.006Z,9.12
2019-04-07T01:54:17.554Z,9.00
2019-04-07T01:55:18.080Z,8.96
2019-04-07T01:56:17.445Z,8.96
2019-04-07T01:57:18.376Z,8.94
2019-04-07T01:58:17.401Z,8.96
2019-04-07T01:59:17.424Z,8.97
2019-04-07T02:00:17.353Z,8.85
2019-04-07T02:01:17.424Z,8.82
2019-04-07T02:02:17.482Z,8.78
2019-04-07T02:03:17.550Z,8.75
2019-04-07T02:04:17.277Z,8.79
2019-04-07T02:05:17.414Z,8.70
2019-04-07T02:06:17.811Z,8.82
2019-04-07T02:07:17.366Z,8.67
2019-04-07T02:08:17.236Z,8.64
2019-04-07T02:09:17.312Z,8.71
2019-04-07T02:10:17.259Z,8.68
2019-04-07T02:11:17.299Z,8.57
2019-04-07T02:12:17.194Z,8.63
2019-04-07T02:13:17.484Z,8.55
2019-04-07T02:14:17.175Z,8.43
2019-04-07T02:15:17.428Z,8.50
2019-04-07T02:16:17.158Z,8.52
2019-04-07T02:17:17.355Z,8.49
2019-04-07T02:18:17.675Z,8.46
2019-04-07T02:19:17.496Z,8.50
2019-04-07T02:20:17.678Z,8.49
2019-04-07T02:21:17.385Z,8.34
2019-04-07T02:22:17.095Z,8.32
2019-04-07T02:23:17.460Z,8.36
2019-04-07T02:24:17.061Z,8.36
2019-04-07T02:25:17.319Z,8.36
2019-04-07T02:26:17.042Z,8.39
2019-04-07T02:27:17.221Z,8.36
2019-04-07T02:28:17.604Z,8.32
2019-04-07T02:29:17.120Z,8.34
2019-04-07T02:30:16.995Z,8.34
2019-04-07T02:31:17.239Z,8.34
2019-04-07T02:32:17.439Z,8.37
2019-04-07T02:33:18.103Z,8.39
2019-04-07T02:34:17.729Z,8.36
2019-04-07T02:35:17.061Z,8.37
2019-04-07T02:36:24.757Z,8.40
2019-04-07T02:37:17.927Z,8.36
2019-04-07T02:38:17.721Z,8.25
2019-04-07T02:39:18.073Z,8.28
2019-04-07T02:40:17.842Z,8.29
2019-04-07T02:41:17.814Z,8.24
2019-04-07T02:42:17.150Z,8.17
2019-04-07T02:43:16.857Z,8.14
2019-04-07T02:44:17.945Z,8.10
2019-04-07T02:45:17.107Z,8.10
2019-04-07T02:46:17.200Z,8.14
2019-04-07T02:47:16.805Z,8.13
2019-04-07T02:48:16.854Z,8.07
2019-04-07T02:49:17.819Z,8.02
2019-04-07T02:50:17.744Z,8.10
2019-04-07T02:51:16.795Z,8.06
2019-04-07T02:52:16.881Z,8.00
2019-04-07T02:53:16.767Z,7.91
2019-04-07T02:54:17.501Z,7.91
2019-04-07T02:55:16.736Z,7.86
2019-04-07T02:56:17.855Z,7.88
2019-04-07T02:57:16.847Z,7.77
2019-04-07T02:58:17.867Z,7.81
2019-04-07T02:59:16.682Z,7.77
2019-04-07T03:00:16.732Z,7.81
2019-04-07T03:01:16.670Z,7.73
2019-04-07T03:02:17.785Z,7.69
2019-04-07T03:03:17.157Z,7.70
2019-04-07T03:04:16.751Z,7.60
2019-04-07T03:05:16.627Z,7.57
2019-04-07T03:06:32.570Z,7.62
2019-04-07T03:07:17.708Z,7.60
2019-04-07T03:08:17.285Z,7.58
2019-04-07T03:09:16.571Z,7.57
2019-04-07T03:10:17.039Z,7.54
2019-04-07T03:11:16.558Z,7.52
2019-04-07T03:12:16.598Z,7.50
2019-04-07T03:13:16.902Z,7.58
2019-04-07T03:15:17.582Z,7.62
2019-04-07T03:16:17.293Z,7.51
2019-04-07T03:17:16.531Z,7.52
2019-04-07T03:18:16.591Z,7.58
2019-04-07T03:19:17.038Z,7.55
2019-04-07T03:20:16.864Z,7.62
2019-04-07T03:21:17.031Z,7.57
2019-04-07T03:22:16.497Z,7.58
2019-04-07T03:23:16.452Z,7.57
2019-04-07T03:24:17.066Z,7.58
2019-04-07T03:25:17.199Z,7.57
2019-04-07T03:26:16.499Z,7.54
2019-04-07T03:27:16.389Z,7.57
2019-04-07T03:28:16.441Z,7.55
2019-04-07T03:29:16.354Z,7.50
2019-04-07T03:30:17.835Z,7.55
2019-04-07T03:31:17.715Z,7.51
2019-04-07T03:32:19.028Z,7.42
2019-04-07T03:33:19.225Z,7.37
2019-04-07T03:34:18.445Z,7.34
2019-04-07T03:35:19.807Z,7.42
2019-04-07T03:36:20.493Z,7.42
2019-04-07T03:37:32.256Z,7.42
2019-04-07T03:38:18.763Z,7.37
2019-04-07T03:39:17.128Z,7.37
2019-04-07T03:40:16.233Z,7.39
2019-04-07T03:41:16.305Z,7.37
2019-04-07T03:42:16.216Z,7.33
2019-04-07T03:43:16.312Z,7.36
2019-04-07T03:44:16.414Z,7.33
2019-04-07T03:45:16.215Z,7.33
2019-04-07T03:46:16.195Z,7.32
2019-04-07T03:47:16.460Z,7.30
2019-04-07T03:48:16.168Z,7.29
2019-04-07T03:49:17.002Z,7.29
2019-04-07T03:50:16.490Z,7.26
2019-04-07T03:51:17.149Z,7.21
2019-04-07T03:52:16.979Z,7.21
2019-04-07T03:53:16.180Z,7.26
2019-04-07T03:54:16.663Z,7.15
2019-04-07T03:55:16.997Z,7.16
2019-04-07T03:56:16.057Z,7.15
2019-04-07T03:57:16.581Z,7.16
2019-04-07T03:58:16.301Z,7.14
2019-04-07T03:59:16.257Z,7.19
2019-04-07T04:00:16.861Z,7.11
2019-04-07T04:01:16.128Z,7.18
2019-04-07T04:02:15.999Z,7.24
2019-04-07T04:03:16.773Z,7.14
2019-04-07T04:04:15.999Z,7.16
2019-04-07T04:05:16.086Z,7.15
2019-04-07T04:06:15.952Z,7.19
2019-04-07T04:07:27.537Z,7.07
2019-04-07T04:08:16.936Z,7.21
2019-04-07T04:09:15.981Z,7.14
2019-04-07T04:10:16.037Z,7.21
2019-04-07T04:11:16.153Z,7.05
2019-04-07T04:12:17.039Z,7.18
2019-04-07T04:13:16.571Z,7.11
2019-04-07T04:14:16.503Z,7.11
2019-04-07T04:15:16.794Z,7.09
2019-04-07T04:16:15.997Z,7.09
2019-04-07T04:17:16.445Z,7.15
2019-04-07T04:18:16.184Z,7.14
2019-04-07T04:19:15.841Z,7.12
2019-04-07T04:20:16.100Z,7.07
2019-04-07T04:21:16.412Z,7.16
2019-04-07T04:22:15.786Z,7.18
2019-04-07T04:23:15.869Z,7.18
2019-04-07T04:24:16.754Z,7.12
2019-04-07T04:25:15.813Z,7.15
2019-04-07T04:26:15.743Z,7.18
2019-04-07T04:27:15.802Z,7.27
2019-04-07T04:28:16.362Z,7.29
2019-04-07T04:29:16.828Z,7.27
2019-04-07T04:30:15.724Z,7.32
2019-04-07T04:31:15.726Z,7.30
2019-04-07T04:32:16.645Z,7.24
2019-04-07T04:33:15.981Z,7.32
2019-04-07T04:34:15.673Z,7.29
2019-04-07T04:35:15.816Z,7.29
2019-04-07T04:36:15.645Z,7.30
2019-04-07T04:37:15.664Z,7.33
2019-04-07T04:38:15.837Z,7.24
2019-04-07T04:39:18.694Z,7.21
2019-04-07T04:40:16.027Z,7.19
2019-04-07T04:41:16.793Z,7.16
2019-04-07T04:42:16.176Z,7.16
2019-04-07T04:43:15.742Z,7.15
2019-04-07T04:44:16.520Z,7.12
2019-04-07T04:45:15.849Z,7.09
2019-04-07T04:46:15.569Z,7.08
2019-04-07T04:47:16.641Z,7.12
2019-04-07T04:48:15.597Z,7.09
2019-04-07T04:49:15.567Z,7.14
2019-04-07T04:50:15.478Z,7.12
2019-04-07T04:51:16.339Z,7.00
2019-04-07T04:52:15.670Z,7.09
2019-04-07T04:53:15.582Z,7.07
2019-04-07T04:54:15.433Z,6.94
2019-04-07T04:55:16.549Z,6.96
2019-04-07T04:56:15.537Z,6.97
2019-04-07T04:57:15.489Z,6.94
2019-04-07T04:58:15.417Z,6.94
2019-04-07T04:59:15.418Z,6.99
2019-04-07T05:00:15.787Z,6.91
2019-04-07T05:01:15.375Z,7.01
2019-04-07T05:02:15.981Z,6.99
2019-04-07T05:03:15.998Z,6.96
2019-04-07T05:04:15.994Z,6.94
2019-04-07T05:05:15.347Z,6.91
2019-04-07T05:06:15.306Z,6.89
2019-04-07T05:07:15.696Z,6.93
2019-04-07T05:08:16.142Z,6.91
2019-04-07T05:09:15.389Z,6.81
2019-04-07T05:10:15.249Z,6.79
2019-04-07T05:11:15.862Z,6.89
2019-04-07T05:12:15.332Z,6.90
2019-04-07T05:13:15.989Z,6.86
2019-04-07T05:14:15.208Z,6.93
2019-04-07T05:15:15.305Z,6.83
2019-04-07T05:16:15.183Z,6.83
2019-04-07T05:17:15.379Z,6.78
2019-04-07T05:18:15.232Z,6.86
2019-04-07T05:19:15.236Z,6.79
2019-04-07T05:20:15.134Z,6.86
2019-04-07T05:21:15.247Z,6.81
2019-04-07T05:22:15.246Z,6.82
2019-04-07T05:23:15.225Z,6.78
2019-04-07T05:24:15.746Z,6.82
2019-04-07T05:25:15.174Z,6.87
2019-04-07T05:26:15.596Z,6.90
2019-04-07T05:27:15.117Z,6.93
2019-04-07T05:28:15.417Z,6.94
2019-04-07T05:29:15.863Z,6.93
2019-04-07T05:30:15.602Z,6.96
2019-04-07T05:31:15.111Z,7.09
2019-04-07T05:32:15.717Z,7.09
2019-04-07T05:33:15.391Z,7.12
2019-04-07T05:34:19.322Z,7.09
2019-04-07T05:35:16.064Z,7.12
2019-04-07T05:36:14.966Z,7.12
2019-04-07T05:37:15.051Z,7.16
2019-04-07T05:38:14.960Z,7.21
2019-04-07T05:39:15.289Z,7.32
2019-04-07T05:40:15.522Z,7.24
2019-04-07T05:41:15.629Z,7.27
2019-04-07T05:42:14.896Z,7.30
2019-04-07T05:43:15.133Z,7.39
2019-04-07T05:44:14.869Z,7.32
2019-04-07T05:45:15.037Z,7.36
2019-04-07T05:46:14.868Z,7.36
2019-04-07T05:47:15.533Z,7.33
2019-04-07T05:48:17.440Z,7.41
2019-04-07T05:49:16.261Z,7.39
2019-04-07T05:50:15.401Z,7.37
2019-04-07T05:51:14.928Z,7.48
2019-04-07T05:52:14.900Z,7.39
2019-04-07T05:53:14.897Z,7.51
2019-04-07T05:54:18.063Z,7.48
2019-04-07T05:55:15.189Z,7.48
2019-04-07T05:56:14.749Z,7.58
2019-04-07T05:57:15.013Z,7.60
2019-04-07T05:58:15.793Z,7.62
2019-04-07T05:59:15.663Z,7.71
2019-04-07T06:00:16.720Z,7.79
2019-04-07T06:01:17.083Z,7.76
2019-04-07T06:03:16.416Z,7.89
2019-04-07T06:04:18.185Z,7.95
2019-04-07T06:05:16.234Z,7.95
2019-04-07T06:06:14.874Z,8.02
2019-04-07T06:07:14.840Z,8.09
2019-04-07T06:08:26.850Z,8.14
2019-04-07T06:09:18.899Z,8.28
2019-04-07T06:10:15.390Z,8.34
2019-04-07T06:11:14.802Z,8.43
2019-04-07T06:12:14.683Z,8.40
2019-04-07T06:13:15.656Z,8.52
2019-04-07T06:14:16.590Z,8.43
2019-04-07T06:15:15.731Z,8.63
2019-04-07T06:16:15.196Z,8.71
2019-04-07T06:17:15.215Z,8.75
2019-04-07T06:18:15.002Z,8.88
2019-04-07T06:19:14.931Z,8.98
2019-04-07T06:20:15.890Z,8.93
2019-04-07T06:21:16.162Z,9.08
2019-04-07T06:22:17.465Z,9.06
2019-04-07T06:23:14.448Z,9.16
2019-04-07T06:24:15.523Z,9.17
2019-04-07T06:25:14.438Z,9.19
2019-04-07T06:26:15.086Z,9.26
2019-04-07T06:27:16.126Z,9.41
2019-04-07T06:28:17.215Z,9.52
2019-04-07T06:29:14.958Z,9.55
2019-04-07T06:30:14.400Z,9.62
2019-04-07T06:31:14.475Z,9.65
2019-04-07T06:32:14.434Z,9.68
2019-04-07T06:33:14.330Z,9.78
2019-04-07T06:34:14.452Z,9.81
2019-04-07T06:35:14.316Z,9.96
2019-04-07T06:36:17.517Z,9.91
2019-04-07T06:37:14.560Z,9.96
2019-04-07T06:38:14.484Z,10.07
2019-04-07T06:39:17.392Z,10.10
2019-04-07T06:40:14.392Z,10.07
2019-04-07T06:41:14.256Z,10.13
2019-04-07T06:42:14.332Z,10.24
2019-04-07T06:43:14.578Z,10.18
2019-04-07T06:44:19.369Z,10.32
2019-04-07T06:45:15.283Z,10.28
2019-04-07T06:46:14.416Z,10.24
2019-04-07T06:47:15.940Z,10.36
2019-04-07T06:48:14.910Z,10.44
2019-04-07T06:49:15.038Z,10.51
2019-04-07T06:50:15.692Z,10.58
2019-04-07T06:51:14.167Z,10.49
2019-04-07T06:52:14.707Z,10.62
2019-04-07T06:53:18.630Z,10.62
2019-04-07T06:54:18.521Z,10.66
2019-04-07T06:55:15.151Z,10.75
2019-04-07T06:56:14.332Z,10.86
2019-04-07T06:57:14.825Z,10.88
2019-04-07T06:58:14.184Z,10.98
2019-04-07T06:59:15.541Z,10.94
2019-04-07T07:00:14.093Z,11.02
2019-04-07T07:01:14.369Z,11.13
2019-04-07T07:02:14.277Z,11.21
2019-04-07T07:03:14.022Z,11.17
2019-04-07T07:04:14.046Z,11.12
2019-04-07T07:05:14.415Z,11.20
2019-04-07T07:06:17.077Z,11.26
2019-04-07T07:07:15.941Z,11.31
2019-04-07T07:08:14.065Z,11.35
2019-04-07T07:09:15.431Z,11.46
2019-04-07T07:10:25.769Z,11.49
2019-04-07T07:11:24.775Z,11.54
2019-04-07T07:12:23.490Z,11.57
2019-04-07T07:13:26.492Z,11.75
2019-04-07T07:14:30.058Z,11.87
2019-04-07T07:15:15.375Z,11.84
2019-04-07T07:16:15.820Z,11.88
2019-04-07T07:17:16.970Z,12.00
2019-04-07T07:18:14.212Z,12.05
2019-04-07T07:19:14.174Z,12.12
2019-04-07T07:20:13.969Z,12.11
2019-04-07T07:21:14.455Z,12.21
2019-04-07T07:22:16.045Z,12.25
2019-04-07T07:23:15.091Z,12.36
2019-04-07T07:24:15.669Z,12.40
2019-04-07T07:25:13.877Z,12.37
2019-04-07T07:26:13.776Z,12.46
2019-04-07T07:27:14.005Z,12.51
2019-04-07T07:28:13.758Z,12.63
2019-04-07T07:29:15.404Z,12.69
2019-04-07T07:30:17.503Z,12.69
2019-04-07T07:31:14.332Z,12.77
2019-04-07T07:32:13.736Z,12.89
2019-04-07T07:33:13.723Z,12.87
2019-04-07T07:34:14.316Z,12.99
2019-04-07T07:35:15.319Z,13.01
2019-04-07T07:36:17.352Z,13.13
2019-04-07T07:37:14.973Z,13.22
2019-04-07T07:38:13.700Z,13.32
2019-04-07T07:39:14.561Z,13.28
2019-04-07T07:40:16.604Z,13.28
2019-04-07T07:41:14.083Z,13.32
2019-04-07T07:42:13.763Z,13.36
2019-04-07T07:43:14.384Z,13.51
2019-04-07T07:44:13.565Z,13.53
2019-04-07T07:45:13.996Z,13.63
2019-04-07T07:46:17.751Z,13.61
2019-04-07T07:47:14.665Z,13.68
2019-04-07T07:48:13.537Z,13.75
2019-04-07T07:49:13.655Z,13.84
2019-04-07T07:50:13.604Z,13.79
2019-04-07T07:51:15.212Z,13.91
2019-04-07T07:52:16.552Z,13.99
2019-04-07T07:53:14.596Z,14.09
2019-04-07T07:54:14.772Z,14.16
2019-04-07T07:55:14.231Z,14.29
2019-04-07T07:56:14.290Z,14.24
2019-04-07T07:57:13.469Z,14.31
2019-04-07T07:58:13.904Z,14.31
2019-04-07T07:59:13.513Z,14.34
2019-04-07T08:00:13.397Z,14.41
2019-04-07T08:01:14.877Z,14.46
2019-04-07T08:02:16.796Z,14.54
2019-04-07T08:03:14.671Z,14.66
2019-04-07T08:04:13.983Z,14.67
2019-04-07T08:05:13.596Z,14.74
2019-04-07T08:06:13.326Z,14.71
2019-04-07T08:07:15.238Z,14.71
2019-04-07T08:08:15.007Z,14.79
2019-04-07T08:09:15.576Z,14.98
2019-04-07T08:10:14.708Z,14.94
2019-04-07T08:11:15.657Z,14.95
2019-04-07T08:12:13.258Z,15.01
2019-04-07T08:13:13.273Z,15.11
2019-04-07T08:14:16.652Z,15.12
2019-04-07T08:15:13.789Z,15.16
2019-04-07T08:16:13.206Z,15.19
2019-04-07T08:17:13.712Z,15.27
2019-04-07T08:18:13.210Z,15.34
2019-04-07T08:19:13.537Z,15.44
2019-04-07T08:20:13.167Z,15.34
2019-04-07T08:21:17.153Z,15.49
2019-04-07T08:22:26.389Z,15.53
2019-04-07T08:23:14.321Z,15.53
2019-04-07T08:24:16.419Z,15.58
2019-04-07T08:25:13.131Z,15.68
2019-04-07T08:26:13.421Z,15.58
2019-04-07T08:27:13.112Z,15.66
2019-04-07T08:28:13.546Z,15.76
2019-04-07T08:29:13.871Z,15.86
2019-04-07T08:30:13.883Z,15.84
2019-04-07T08:31:13.269Z,15.91
2019-04-07T08:32:13.309Z,15.98
2019-04-07T08:33:13.032Z,16.07
2019-04-07T08:34:13.146Z,16.08
2019-04-07T08:35:13.131Z,16.22
2019-04-07T08:36:14.200Z,16.26
2019-04-07T08:37:15.163Z,16.27
2019-04-07T08:38:13.928Z,16.34
2019-04-07T08:39:21.596Z,16.29
2019-04-07T08:40:14.064Z,16.30
2019-04-07T08:41:15.468Z,16.37
2019-04-07T08:42:17.498Z,16.41
2019-04-07T08:43:14.874Z,16.45
2019-04-07T08:44:12.912Z,16.51
2019-04-07T08:45:13.029Z,16.51
2019-04-07T08:46:13.655Z,16.66
2019-04-07T08:47:18.860Z,16.73
2019-04-07T08:48:13.886Z,16.75
2019-04-07T08:49:12.919Z,16.80
2019-04-07T08:50:13.314Z,16.87
2019-04-07T08:51:13.631Z,16.85
2019-04-07T08:52:13.063Z,16.92
2019-04-07T08:53:13.833Z,16.85
2019-04-07T08:54:15.740Z,16.95
2019-04-07T08:55:12.922Z,16.90
2019-04-07T08:56:13.003Z,16.98
2019-04-07T08:57:12.874Z,17.00
2019-04-07T08:58:24.455Z,17.12
2019-04-07T08:59:16.815Z,17.03
2019-04-07T09:00:15.068Z,17.15
2019-04-07T09:01:12.753Z,17.17
2019-04-07T09:02:12.800Z,17.17
2019-04-07T09:03:15.126Z,17.14
2019-04-07T09:04:15.138Z,17.12
2019-04-07T09:05:12.984Z,17.17
2019-04-07T09:06:13.013Z,17.22
2019-04-07T09:07:12.692Z,17.22
2019-04-07T09:08:12.754Z,17.15
2019-04-07T09:09:13.946Z,17.21
2019-04-07T09:10:12.762Z,17.27
2019-04-07T09:11:13.092Z,17.28
2019-04-07T09:12:12.691Z,17.28
2019-04-07T09:13:13.106Z,17.43
2019-04-07T09:14:14.747Z,17.45
2019-04-07T09:15:13.079Z,17.46
2019-04-07T09:16:15.094Z,17.36
2019-04-07T09:17:12.712Z,17.46
2019-04-07T09:18:14.943Z,17.49
2019-04-07T09:19:12.529Z,17.53
2019-04-07T09:20:13.463Z,17.55
2019-04-07T09:21:14.903Z,17.65
2019-04-07T09:22:12.814Z,17.70
2019-04-07T09:23:12.485Z,17.73
2019-04-07T09:24:12.628Z,17.71
2019-04-07T09:25:13.064Z,17.74
2019-04-07T09:26:12.558Z,17.87
2019-04-07T09:27:16.995Z,17.94
2019-04-07T09:28:14.266Z,17.91
2019-04-07T09:29:12.761Z,17.94
2019-04-07T09:30:12.484Z,17.94
2019-04-07T09:31:13.093Z,17.92
2019-04-07T09:32:12.529Z,17.91
2019-04-07T09:33:12.555Z,17.86
2019-04-07T09:34:12.874Z,18.01
2019-04-07T09:35:12.416Z,18.14
2019-04-07T09:36:12.416Z,18.11
2019-04-07T09:37:12.354Z,18.13
2019-04-07T09:38:12.498Z,18.14
2019-04-07T09:39:12.409Z,18.26
2019-04-07T09:40:13.692Z,18.19
2019-04-07T09:41:12.288Z,18.34
2019-04-07T09:42:12.414Z,18.34
2019-04-07T09:43:12.666Z,18.41
2019-04-07T09:44:12.539Z,18.42
2019-04-07T09:45:12.800Z,18.41
2019-04-07T09:46:12.289Z,18.54
2019-04-07T09:47:15.914Z,18.56
2019-04-07T09:48:12.401Z,18.65
2019-04-07T09:49:12.209Z,18.68
2019-04-07T09:50:12.321Z,18.71
2019-04-07T09:51:12.171Z,18.78
2019-04-07T09:52:14.914Z,18.76
2019-04-07T09:53:15.810Z,18.68
2019-04-07T09:54:12.324Z,18.79
2019-04-07T09:55:12.148Z,18.84
2019-04-07T09:56:12.953Z,18.82
2019-04-07T09:57:12.220Z,18.93
2019-04-07T09:58:12.272Z,18.94
2019-04-07T09:59:15.416Z,19.02
2019-04-07T10:00:14.325Z,19.20
2019-04-07T10:01:12.990Z,19.24
2019-04-07T10:02:12.478Z,19.23
2019-04-07T10:03:14.466Z,19.21
2019-04-07T10:04:12.218Z,19.23
2019-04-07T10:05:12.026Z,19.32
2019-04-07T10:06:12.215Z,19.38
2019-04-07T10:07:13.034Z,19.42
2019-04-07T10:08:13.852Z,19.45
2019-04-07T10:09:11.983Z,19.45
2019-04-07T10:10:14.483Z,19.42
2019-04-07T10:11:12.847Z,19.53
2019-04-07T10:12:12.772Z,19.61
2019-04-07T10:13:12.370Z,19.58
2019-04-07T10:14:12.664Z,19.67
2019-04-07T10:15:12.921Z,19.57
2019-04-07T10:16:12.094Z,19.76
2019-04-07T10:17:11.922Z,19.75
2019-04-07T10:18:12.097Z,19.71
2019-04-07T10:19:11.902Z,19.80
2019-04-07T10:20:12.363Z,19.87
2019-04-07T10:21:11.895Z,19.97
2019-04-07T10:22:12.436Z,19.92
2019-04-07T10:23:11.826Z,19.82
2019-04-07T10:24:12.152Z,19.95
2019-04-07T10:25:12.030Z,19.82
2019-04-07T10:26:11.846Z,19.95
2019-04-07T10:27:12.522Z,20.02
2019-04-07T10:28:12.891Z,20.05
2019-04-07T10:29:12.206Z,20.08
2019-04-07T10:30:11.925Z,19.98
2019-04-07T10:31:12.558Z,19.98
2019-04-07T10:32:12.475Z,20.00
2019-04-07T10:33:12.186Z,19.97
2019-04-07T10:34:13.277Z,20.07
2019-04-07T10:35:12.513Z,20.13
2019-04-07T10:36:11.815Z,20.25
2019-04-07T10:37:11.678Z,20.15
2019-04-07T10:38:12.568Z,20.30
2019-04-07T10:39:12.007Z,20.31
2019-04-07T10:40:18.898Z,20.38
2019-04-07T10:41:12.918Z,20.37
2019-04-07T10:42:12.477Z,20.42
2019-04-07T10:43:11.791Z,20.35
2019-04-07T10:44:11.705Z,20.35
2019-04-07T10:45:12.037Z,20.37
2019-04-07T10:46:12.366Z,20.40
2019-04-07T10:47:11.867Z,20.44
2019-04-07T10:48:12.030Z,20.48
2019-04-07T10:49:11.548Z,20.51
2019-04-07T10:50:11.637Z,20.41
2019-04-07T10:51:12.169Z,20.41
2019-04-07T10:52:11.654Z,20.46
2019-04-07T10:53:11.512Z,20.50
2019-04-07T10:54:11.532Z,20.50
2019-04-07T10:55:11.569Z,20.60
2019-04-07T10:56:12.517Z,20.58
2019-04-07T10:57:12.206Z,20.64
2019-04-07T10:58:11.596Z,20.73
2019-04-07T10:59:11.506Z,20.82
2019-04-07T11:00:11.500Z,20.81
2019-04-07T11:01:11.494Z,20.87
2019-04-07T11:02:11.950Z,20.94
2019-04-07T11:03:12.071Z,20.87
2019-04-07T11:04:11.500Z,20.91
2019-04-07T11:05:12.028Z,20.87
2019-04-07T11:06:11.642Z,20.90
2019-04-07T11:07:11.347Z,20.88
2019-04-07T11:08:11.677Z,20.91
2019-04-07T11:09:11.333Z,21.05
2019-04-07T11:10:11.585Z,21.09
2019-04-07T11:11:12.139Z,21.05
2019-04-07T11:12:11.398Z,21.00
2019-04-07T11:13:13.435Z,21.06
2019-04-07T11:14:11.370Z,21.00
2019-04-07T11:15:11.268Z,21.03
2019-04-07T11:16:11.424Z,21.06
2019-04-07T11:17:11.425Z,21.15
2019-04-07T11:18:11.288Z,21.13
2019-04-07T11:19:11.223Z,21.19
2019-04-07T11:20:11.655Z,21.16
2019-04-07T11:21:12.125Z,21.31
2019-04-07T11:22:11.209Z,21.27
2019-04-07T11:23:11.917Z,21.28
2019-04-07T11:24:11.238Z,21.19
2019-04-07T11:25:11.932Z,21.19
2019-04-07T11:26:11.316Z,21.18
2019-04-07T11:27:11.307Z,21.26
2019-04-07T11:28:11.182Z,21.15
2019-04-07T11:29:11.172Z,21.36
2019-04-07T11:30:11.494Z,21.33
2019-04-07T11:31:11.148Z,21.33
2019-04-07T11:32:12.026Z,21.34
2019-04-07T11:33:11.746Z,21.34
2019-04-07T11:34:11.133Z,21.52
2019-04-07T11:35:11.227Z,21.42
2019-04-07T11:36:11.114Z,21.53
2019-04-07T11:37:12.865Z,21.61
2019-04-07T11:38:11.147Z,21.49
2019-04-07T11:39:11.130Z,21.55
2019-04-07T11:40:11.727Z,21.63
2019-04-07T11:41:11.195Z,21.74
2019-04-07T11:42:11.826Z,21.79
2019-04-07T11:43:11.175Z,21.77
2019-04-07T11:44:11.713Z,21.89
2019-04-07T11:45:11.341Z,21.86
2019-04-07T11:46:10.974Z,21.74
2019-04-07T11:47:11.017Z,21.85
2019-04-07T11:48:10.986Z,21.89
2019-04-07T11:49:13.096Z,21.93
2019-04-07T11:50:10.995Z,21.82
2019-04-07T11:51:10.868Z,21.86
2019-04-07T11:52:11.488Z,21.91
2019-04-07T11:53:11.070Z,21.79
2019-04-07T11:54:10.930Z,21.82
2019-04-07T11:55:11.848Z,21.91
2019-04-07T11:56:11.501Z,21.91
2019-04-07T11:57:10.921Z,22.06
2019-04-07T11:58:15.539Z,22.01
2019-04-07T11:59:11.788Z,21.96
2019-04-07T12:00:12.335Z,22.01
2019-04-07T12:01:14.244Z,22.06
2019-04-07T12:02:10.878Z,22.02
2019-04-07T12:03:11.653Z,22.15
2019-04-07T12:04:11.222Z,22.14
2019-04-07T12:05:10.719Z,22.24
2019-04-07T12:06:11.637Z,22.31
2019-04-07T12:07:11.157Z,22.29
2019-04-07T12:08:11.499Z,22.31
2019-04-07T12:09:10.877Z,22.30
2019-04-07T12:10:11.455Z,22.27
2019-04-07T12:11:13.075Z,22.27
2019-04-07T12:12:11.448Z,22.30
2019-04-07T12:13:10.680Z,22.29
2019-04-07T12:14:10.733Z,22.31
2019-04-07T12:15:10.779Z,22.35
2019-04-07T12:16:10.680Z,22.41
2019-04-07T12:17:12.549Z,22.54
2019-04-07T12:18:14.964Z,22.59
2019-04-07T12:19:12.604Z,22.61
2019-04-07T12:20:10.897Z,22.66
2019-04-07T12:21:20.096Z,22.69
2019-04-07T12:22:13.835Z,22.74
2019-04-07T12:23:10.700Z,22.78
2019-04-07T12:24:10.699Z,22.85
2019-04-07T12:25:10.633Z,22.86
2019-04-07T12:26:10.485Z,22.89
2019-04-07T12:27:12.361Z,22.94
2019-04-07T12:28:14.703Z,22.93
2019-04-07T12:29:12.416Z,22.88
2019-04-07T12:30:10.461Z,22.91
2019-04-07T12:31:10.475Z,22.93
2019-04-07T12:32:10.470Z,23.03
2019-04-07T12:33:11.466Z,22.91
2019-04-07T12:34:14.031Z,23.03
2019-04-07T12:35:10.833Z,22.89
2019-04-07T12:36:10.382Z,22.85
2019-04-07T12:37:10.423Z,22.85
2019-04-07T12:38:12.321Z,22.69
2019-04-07T12:39:10.475Z,22.56
2019-04-07T12:40:10.917Z,22.57
2019-04-07T12:41:16.972Z,22.66
2019-04-07T12:42:11.403Z,22.78
2019-04-07T12:43:13.765Z,22.89
2019-04-07T12:44:10.433Z,22.96
2019-04-07T12:45:11.176Z,22.91
2019-04-07T12:46:11.109Z,22.89
2019-04-07T12:47:11.310Z,22.86
2019-04-07T12:48:10.308Z,22.96
2019-04-07T12:49:10.374Z,22.89
2019-04-07T12:50:10.592Z,22.81
2019-04-07T12:51:10.300Z,22.86
2019-04-07T12:52:10.219Z,22.91
2019-04-07T12:53:10.316Z,22.86
2019-04-07T12:54:10.409Z,23.03
2019-04-07T12:55:13.719Z,23.18
2019-04-07T12:56:10.484Z,23.31
2019-04-07T12:57:10.592Z,23.42
2019-04-07T12:58:11.664Z,23.42
2019-04-07T12:59:14.258Z,23.52
2019-04-07T13:00:11.367Z,23.42
2019-04-07T13:01:16.351Z,23.38
2019-04-07T13:02:11.421Z,23.25
2019-04-07T13:03:11.584Z,23.25
2019-04-07T13:04:10.145Z,23.14
2019-04-07T13:06:11.147Z,23.04